createdAt,value
2018-03-31T00:02:24.662Z,11.10
2018-03-31T00:04:52.391Z,11.10
2018-03-31T00:07:19.756Z,11.10
2018-03-31T00:09:46.724Z,11.10
2018-03-31T00:12:14.885Z,11.10
2018-03-31T00:14:42.902Z,11.10
2018-03-31T00:17:10.392Z,11.10
2018-03-31T00:19:37.960Z,11.10
2018-03-31T00:22:04.922Z,11.10
2018-03-31T00:24:33.112Z,11.10
2018-03-31T00:27:00.473Z,11.00
2018-03-31T00:29:27.464Z,11.00
2018-03-31T00:31:54.441Z,11.00
2018-03-31T00:34:22.188Z,11.00
2018-03-31T00:36:49.490Z,11.00
2018-03-31T00:39:16.499Z,11.00
2018-03-31T00:41:44.223Z,11.00
2018-03-31T00:44:11.594Z,11.00
2018-03-31T00:46:38.620Z,11.00
2018-03-31T00:49:05.577Z,11.00
2018-03-31T00:51:32.649Z,10.90
2018-03-31T00:53:59.613Z,10.90
2018-03-31T00:56:26.629Z,10.90
2018-03-31T00:58:53.619Z,10.90
2018-03-31T01:01:20.865Z,10.90
2018-03-31T01:03:47.831Z,10.90
2018-03-31T01:06:15.014Z,10.80
2018-03-31T01:08:41.989Z,10.80
2018-03-31T01:11:10.144Z,10.70
2018-03-31T01:13:37.105Z,10.70
2018-03-31T01:16:04.866Z,10.60
2018-03-31T01:18:33.214Z,10.70
2018-03-31T01:21:00.668Z,10.60
2018-03-31T01:23:27.729Z,10.60
2018-03-31T01:25:55.045Z,10.60
2018-03-31T01:28:22.004Z,10.50
2018-03-31T01:30:48.986Z,10.40
2018-03-31T01:33:16.721Z,10.40
2018-03-31T01:35:44.089Z,10.40
2018-03-31T01:38:11.110Z,10.30
2018-03-31T01:40:38.170Z,10.30
2018-03-31T01:43:05.148Z,10.30
2018-03-31T01:45:33.208Z,10.20
2018-03-31T01:48:00.959Z,10.20
2018-03-31T01:50:28.625Z,10.20
2018-03-31T01:52:55.771Z,10.10
2018-03-31T01:55:22.742Z,10.10
2018-03-31T01:57:50.551Z,10.00
2018-03-31T02:00:17.527Z,10.00
2018-03-31T02:02:44.533Z,10.00
2018-03-31T02:05:11.606Z,10.00
2018-03-31T02:07:38.606Z,10.00
2018-03-31T02:10:05.578Z,10.00
2018-03-31T02:12:32.837Z,10.00
2018-03-31T02:15:00.204Z,9.90
2018-03-31T02:17:27.647Z,10.00
2018-03-31T02:19:54.612Z,9.90
2018-03-31T02:22:21.883Z,9.90
2018-03-31T02:24:48.992Z,9.90
2018-03-31T02:27:17.100Z,9.90
2018-03-31T02:29:44.056Z,9.90
2018-03-31T02:32:11.795Z,9.80
2018-03-31T02:34:39.185Z,9.80
2018-03-31T02:37:06.700Z,9.80
2018-03-31T02:39:33.682Z,9.70
2018-03-31T02:42:01.414Z,9.70
2018-03-31T02:44:29.170Z,9.70
2018-03-31T02:46:56.090Z,9.70
2018-03-31T02:49:23.493Z,9.70
2018-03-31T02:51:50.442Z,9.70
2018-03-31T02:54:18.244Z,9.60
2018-03-31T02:56:45.197Z,9.60
2018-03-31T02:59:12.375Z,9.70
2018-03-31T03:01:39.325Z,9.70
2018-03-31T03:04:06.332Z,9.70
2018-03-31T03:06:33.717Z,9.70
2018-03-31T03:09:00.865Z,9.70
2018-03-31T03:11:28.353Z,9.70
2018-03-31T03:13:56.196Z,9.80
2018-03-31T03:16:24.114Z,9.80
2018-03-31T03:18:51.514Z,9.70
2018-03-31T03:21:18.478Z,9.80
2018-03-31T03:23:45.607Z,9.80
2018-03-31T03:26:12.560Z,9.80
2018-03-31T03:28:39.514Z,9.80
2018-03-31T03:31:07.570Z,9.80
2018-03-31T03:33:34.520Z,9.80
2018-03-31T03:36:01.869Z,9.80
2018-03-31T03:38:28.824Z,9.80
2018-03-31T03:40:56.588Z,9.80
2018-03-31T03:43:24.805Z,9.80
2018-03-31T03:45:51.892Z,9.80
2018-03-31T03:48:19.214Z,9.80
2018-03-31T03:50:46.199Z,9.80
2018-03-31T03:53:13.152Z,9.80
2018-03-31T03:55:40.196Z,9.70
2018-03-31T03:58:07.152Z,9.70
2018-03-31T04:00:35.507Z,9.60
2018-03-31T04:03:02.458Z,9.60
2018-03-31T04:05:29.436Z,9.60
2018-03-31T04:07:57.156Z,9.60
2018-03-31T04:10:24.316Z,9.60
2018-03-31T04:12:51.669Z,9.70
2018-03-31T04:15:18.661Z,9.60
2018-03-31T04:17:46.694Z,9.60
2018-03-31T04:20:13.657Z,9.60
2018-03-31T04:22:41.406Z,9.60
2018-03-31T04:25:09.048Z,9.50
2018-03-31T04:27:36.026Z,9.50
2018-03-31T04:30:03.823Z,9.50
2018-03-31T04:32:30.793Z,9.50
2018-03-31T04:34:58.160Z,9.50
2018-03-31T04:37:25.327Z,9.50
2018-03-31T04:39:53.040Z,9.50
2018-03-31T04:42:20.068Z,9.50
2018-03-31T04:44:47.284Z,9.50
2018-03-31T04:47:14.292Z,9.50
2018-03-31T04:49:41.249Z,9.40
2018-03-31T04:52:08.232Z,9.40
2018-03-31T04:54:36.184Z,9.40
2018-03-31T04:57:03.204Z,9.40
2018-03-31T04:59:30.202Z,9.40
2018-03-31T05:01:58.258Z,9.30
2018-03-31T05:04:25.988Z,9.30
2018-03-31T05:06:52.951Z,9.30
2018-03-31T05:09:20.024Z,9.30
2018-03-31T05:11:48.113Z,9.20
2018-03-31T05:14:15.094Z,9.20
2018-03-31T05:16:42.072Z,9.20
2018-03-31T05:19:10.982Z,9.10
2018-03-31T05:21:38.737Z,9.10
2018-03-31T05:24:06.458Z,9.10
2018-03-31T05:26:33.817Z,9.00
2018-03-31T05:29:00.794Z,9.10
2018-03-31T05:31:28.512Z,8.90
2018-03-31T05:33:57.216Z,8.90
2018-03-31T05:36:24.529Z,8.90
2018-03-31T05:38:51.507Z,8.90
2018-03-31T05:41:18.944Z,8.80
2018-03-31T05:43:47.303Z,8.80
2018-03-31T05:46:15.525Z,8.80
2018-03-31T05:48:42.489Z,8.80
2018-03-31T05:51:10.368Z,8.70
2018-03-31T05:53:38.194Z,8.60
2018-03-31T05:56:05.183Z,8.60
2018-03-31T05:58:33.020Z,8.60
2018-03-31T06:00:59.971Z,8.60
2018-03-31T06:03:27.728Z,8.60
2018-03-31T06:05:54.676Z,8.60
2018-03-31T06:08:21.645Z,8.60
2018-03-31T06:10:49.698Z,8.60
2018-03-31T06:13:17.639Z,8.60
2018-03-31T06:15:44.605Z,8.60
2018-03-31T06:18:11.889Z,8.60
2018-03-31T06:20:38.860Z,8.60
2018-03-31T06:23:05.860Z,8.60
2018-03-31T06:25:32.844Z,8.60
2018-03-31T06:28:00.216Z,8.70
2018-03-31T06:30:27.205Z,8.60
2018-03-31T06:32:55.007Z,8.70
2018-03-31T06:35:22.330Z,8.70
2018-03-31T06:37:50.047Z,8.80
2018-03-31T06:40:17.356Z,8.80
2018-03-31T06:42:45.073Z,8.90
2018-03-31T06:45:12.391Z,8.90
2018-03-31T06:47:39.352Z,8.90
2018-03-31T06:50:07.480Z,9.00
2018-03-31T06:52:35.210Z,9.10
2018-03-31T06:55:02.265Z,9.00
2018-03-31T06:57:29.219Z,9.10
2018-03-31T06:59:56.496Z,9.20
2018-03-31T07:02:23.465Z,9.30
2018-03-31T07:04:50.445Z,9.30
2018-03-31T07:07:17.430Z,9.40
2018-03-31T07:09:44.585Z,9.40
2018-03-31T07:12:11.946Z,9.50
2018-03-31T07:14:39.352Z,9.50
2018-03-31T07:17:07.548Z,9.60
2018-03-31T07:19:35.289Z,9.60
2018-03-31T07:22:02.351Z,9.60
2018-03-31T07:24:29.335Z,9.60
2018-03-31T07:26:56.396Z,9.60
2018-03-31T07:29:23.353Z,9.60
2018-03-31T07:31:50.768Z,9.70
2018-03-31T07:34:18.083Z,9.70
2018-03-31T07:36:45.433Z,9.80
2018-03-31T07:39:12.395Z,9.80
2018-03-31T07:41:39.384Z,9.80
2018-03-31T07:44:06.657Z,9.80
2018-03-31T07:46:33.633Z,9.90
2018-03-31T07:49:00.599Z,9.90
2018-03-31T07:51:28.389Z,10.10
2018-03-31T07:53:55.352Z,10.10
2018-03-31T07:56:22.865Z,10.20
2018-03-31T07:58:50.588Z,10.30
2018-03-31T08:01:17.572Z,10.30
2018-03-31T08:03:44.656Z,10.40
2018-03-31T08:06:11.716Z,10.50
2018-03-31T08:08:39.025Z,10.50
2018-03-31T08:11:07.057Z,10.60
2018-03-31T08:13:34.013Z,10.60
2018-03-31T08:16:01.175Z,10.70
2018-03-31T08:18:29.243Z,10.80
2018-03-31T08:20:58.100Z,10.80
2018-03-31T08:23:25.345Z,10.80
2018-03-31T08:25:52.301Z,10.90
2018-03-31T08:28:19.756Z,11.00
2018-03-31T08:30:46.734Z,11.10
2018-03-31T08:33:14.477Z,11.20
2018-03-31T08:35:42.520Z,11.20
2018-03-31T08:38:09.525Z,11.20
2018-03-31T08:40:37.312Z,11.30
2018-03-31T08:43:04.313Z,11.30
2018-03-31T08:45:31.756Z,11.40
2018-03-31T08:47:58.754Z,11.50
2018-03-31T08:50:25.733Z,11.60
2018-03-31T08:52:52.754Z,11.70
2018-03-31T08:55:20.240Z,11.80
2018-03-31T08:57:47.228Z,11.90
2018-03-31T09:00:14.961Z,12.10
2018-03-31T09:02:42.224Z,12.10
2018-03-31T09:05:09.223Z,12.20
2018-03-31T09:07:36.214Z,12.30
2018-03-31T09:10:03.209Z,12.40
2018-03-31T09:12:30.416Z,12.40
2018-03-31T09:14:58.149Z,12.50
2018-03-31T09:17:25.625Z,12.50
2018-03-31T09:19:53.137Z,12.60
2018-03-31T09:22:20.290Z,12.70
2018-03-31T09:24:47.274Z,12.80
2018-03-31T09:27:14.227Z,12.90
2018-03-31T09:29:41.991Z,13.00
2018-03-31T09:32:09.369Z,13.00
2018-03-31T09:34:37.196Z,13.10
2018-03-31T09:37:05.465Z,13.20
2018-03-31T09:39:32.460Z,13.30
2018-03-31T09:42:00.196Z,13.60
2018-03-31T09:44:27.545Z,13.60
2018-03-31T09:46:54.543Z,13.70
2018-03-31T09:49:22.035Z,13.80
2018-03-31T09:51:49.001Z,13.90
2018-03-31T09:54:16.094Z,14.10
2018-03-31T09:56:43.687Z,14.20
2018-03-31T09:59:10.781Z,14.20
2018-03-31T10:01:38.495Z,14.20
2018-03-31T10:04:05.699Z,14.20
2018-03-31T10:06:32.663Z,14.30
2018-03-31T10:08:59.655Z,14.40
2018-03-31T10:11:26.896Z,14.40
2018-03-31T10:13:54.188Z,14.50
2018-03-31T10:16:21.255Z,14.50
2018-03-31T10:18:48.481Z,14.60
2018-03-31T10:21:15.594Z,14.70
2018-03-31T10:23:42.559Z,14.70
2018-03-31T10:26:10.300Z,14.80
2018-03-31T10:28:37.312Z,14.80
2018-03-31T10:31:04.616Z,14.90
2018-03-31T10:33:32.352Z,15.10
2018-03-31T10:35:59.929Z,15.10
2018-03-31T10:38:26.938Z,15.20
2018-03-31T10:40:53.920Z,15.20
2018-03-31T10:43:20.903Z,15.20
2018-03-31T10:45:49.141Z,15.20
2018-03-31T10:48:16.108Z,15.10
2018-03-31T10:50:43.851Z,15.10
2018-03-31T10:53:10.819Z,15.00
2018-03-31T10:55:38.568Z,15.10
2018-03-31T10:58:05.856Z,15.10
2018-03-31T11:00:32.959Z,15.00
2018-03-31T11:03:00.261Z,14.90
2018-03-31T11:05:27.211Z,14.80
2018-03-31T11:07:54.592Z,14.70
2018-03-31T11:10:21.577Z,14.80
2018-03-31T11:12:49.664Z,14.90
2018-03-31T11:15:16.597Z,14.90
2018-03-31T11:17:44.778Z,14.90
2018-03-31T11:20:12.510Z,15.00
2018-03-31T11:22:41.053Z,15.10
2018-03-31T11:25:08.014Z,15.10
2018-03-31T11:27:35.352Z,15.30
2018-03-31T11:30:02.839Z,15.50
2018-03-31T11:32:30.224Z,15.80
2018-03-31T11:34:57.775Z,16.00
2018-03-31T11:37:25.839Z,16.20
2018-03-31T11:39:53.136Z,16.20
2018-03-31T11:42:20.127Z,16.40
2018-03-31T11:44:48.199Z,16.60
2018-03-31T11:47:15.211Z,16.60
2018-03-31T11:49:42.245Z,16.60
2018-03-31T11:52:09.241Z,16.60
2018-03-31T11:54:36.214Z,16.60
2018-03-31T11:57:05.070Z,16.80
2018-03-31T11:59:34.202Z,16.80
2018-03-31T12:02:01.153Z,16.80
2018-03-31T12:04:28.154Z,17.00
2018-03-31T12:06:55.114Z,17.00
2018-03-31T12:09:22.100Z,17.10
2018-03-31T12:11:49.449Z,17.10
2018-03-31T12:14:16.429Z,17.20
2018-03-31T12:16:43.388Z,17.30
2018-03-31T12:19:10.672Z,17.50
2018-03-31T12:21:38.386Z,17.90
2018-03-31T12:24:05.552Z,17.90
2018-03-31T12:26:32.732Z,18.10
2018-03-31T12:29:00.468Z,18.60
2018-03-31T12:31:27.425Z,18.50
2018-03-31T12:33:55.333Z,18.70
2018-03-31T12:36:22.740Z,18.70
2018-03-31T12:38:49.726Z,18.80
2018-03-31T12:41:16.680Z,18.90
2018-03-31T12:43:43.990Z,19.00
2018-03-31T12:46:10.956Z,19.00
2018-03-31T12:48:38.700Z,18.90
2018-03-31T12:51:06.074Z,18.90
2018-03-31T12:53:33.494Z,19.00
2018-03-31T12:56:01.329Z,19.20
2018-03-31T12:58:29.137Z,19.20
2018-03-31T13:00:56.080Z,19.20
2018-03-31T13:03:23.134Z,19.40
2018-03-31T13:05:50.110Z,19.50
2018-03-31T13:08:17.126Z,19.70
2018-03-31T13:10:44.756Z,19.70
2018-03-31T13:13:11.710Z,19.60
2018-03-31T13:15:39.480Z,19.00
2018-03-31T13:18:07.558Z,18.90
2018-03-31T13:20:34.544Z,18.90
2018-03-31T13:23:01.537Z,18.90
2018-03-31T13:25:31.046Z,18.80
2018-03-31T13:27:58.002Z,18.80
2018-03-31T13:30:25.129Z,18.70
2018-03-31T13:32:52.114Z,18.50
2018-03-31T13:35:20.268Z,18.20
2018-03-31T13:37:47.228Z,18.10
2018-03-31T13:40:15.063Z,17.90
2018-03-31T13:42:42.065Z,17.90
2018-03-31T13:45:09.222Z,18.00
2018-03-31T13:47:36.522Z,18.30
2018-03-31T13:50:04.316Z,18.20
2018-03-31T13:52:31.317Z,18.20
2018-03-31T13:54:58.382Z,18.20
2018-03-31T13:57:26.655Z,18.10
2018-03-31T13:59:54.372Z,18.20
2018-03-31T14:02:21.370Z,18.20
2018-03-31T14:04:49.101Z,18.40
2018-03-31T14:07:16.330Z,18.40
2018-03-31T14:09:43.820Z,18.40
2018-03-31T14:12:11.378Z,18.40
2018-03-31T14:14:38.340Z,18.40
2018-03-31T14:17:05.979Z,18.30
2018-03-31T14:19:32.930Z,18.20
2018-03-31T14:21:59.926Z,18.10
2018-03-31T14:24:27.118Z,18.10
2018-03-31T14:26:54.073Z,17.90
2018-03-31T14:29:21.029Z,17.80
2018-03-31T14:31:48.153Z,17.70
2018-03-31T14:34:15.130Z,17.50
2018-03-31T14:36:42.565Z,17.30
2018-03-31T14:39:10.220Z,17.10
2018-03-31T14:41:37.207Z,17.00
2018-03-31T14:44:05.444Z,16.80
2018-03-31T14:46:32.429Z,16.70
2018-03-31T14:49:00.162Z,16.50
2018-03-31T14:51:27.911Z,16.40
2018-03-31T14:53:54.869Z,16.40
2018-03-31T14:56:22.626Z,16.30
2018-03-31T14:58:49.916Z,16.30
2018-03-31T15:01:17.761Z,16.10
2018-03-31T15:03:44.704Z,16.00
2018-03-31T15:06:13.875Z,15.90
2018-03-31T15:08:40.873Z,15.90
2018-03-31T15:11:08.187Z,15.90
2018-03-31T15:13:35.136Z,15.90
2018-03-31T15:16:03.605Z,15.90
2018-03-31T15:18:30.878Z,15.90
2018-03-31T15:20:57.868Z,16.00
2018-03-31T15:23:24.842Z,16.00
2018-03-31T15:25:51.810Z,16.00
2018-03-31T15:28:18.846Z,16.00
2018-03-31T15:30:45.850Z,16.10
2018-03-31T15:33:13.175Z,16.20
2018-03-31T15:35:41.335Z,16.40
2018-03-31T15:38:09.345Z,16.40
2018-03-31T15:40:36.336Z,16.50
2018-03-31T15:43:04.593Z,16.60
2018-03-31T15:45:32.296Z,16.70
2018-03-31T15:47:59.281Z,16.70
2018-03-31T15:50:26.246Z,16.70
2018-03-31T15:52:53.529Z,16.70
2018-03-31T15:55:21.237Z,16.50
2018-03-31T15:57:57.853Z,16.60
2018-03-31T16:00:24.840Z,16.50
2018-03-31T16:02:52.425Z,16.40
2018-03-31T16:05:19.772Z,16.30
2018-03-31T16:07:46.761Z,16.30
2018-03-31T16:10:13.734Z,16.30
2018-03-31T16:12:46.011Z,16.20
2018-03-31T16:15:13.105Z,16.20
2018-03-31T16:17:41.560Z,16.10
2018-03-31T16:20:08.592Z,16.10
2018-03-31T16:22:35.565Z,16.00
2018-03-31T16:25:02.993Z,16.00
2018-03-31T16:27:30.177Z,15.90
2018-03-31T16:29:57.533Z,15.90
2018-03-31T16:32:24.507Z,15.80
2018-03-31T16:34:54.098Z,15.90
2018-03-31T16:37:26.794Z,15.90
2018-03-31T16:39:53.914Z,15.90
2018-03-31T16:42:20.884Z,15.90
2018-03-31T16:44:48.081Z,15.90
2018-03-31T16:47:15.049Z,15.90
2018-03-31T16:49:42.029Z,15.90
2018-03-31T16:52:10.194Z,15.90
2018-03-31T16:54:37.950Z,15.90
2018-03-31T16:57:04.948Z,15.80
2018-03-31T16:59:32.089Z,15.80
2018-03-31T17:01:59.049Z,15.80
2018-03-31T17:04:26.028Z,15.70
2018-03-31T17:06:52.999Z,15.60
2018-03-31T17:09:19.964Z,15.60
2018-03-31T17:11:47.303Z,15.50
2018-03-31T17:14:15.045Z,15.40
2018-03-31T17:16:43.607Z,15.30
2018-03-31T17:19:10.968Z,15.30
2018-03-31T17:21:37.924Z,15.20
2018-03-31T17:24:05.664Z,15.10
2018-03-31T17:26:32.638Z,15.10
2018-03-31T17:28:59.589Z,15.10
2018-03-31T17:31:27.461Z,15.00
2018-03-31T17:33:55.199Z,14.90
2018-03-31T17:36:22.430Z,14.90
2018-03-31T17:38:49.392Z,14.90
2018-03-31T17:41:16.385Z,14.80
2018-03-31T17:43:44.715Z,14.70
2018-03-31T17:46:20.686Z,14.70
2018-03-31T17:48:47.695Z,14.70
2018-03-31T17:51:14.711Z,14.60
2018-03-31T17:53:42.534Z,14.50
2018-03-31T17:56:09.505Z,14.50
2018-03-31T17:58:36.940Z,14.40
2018-03-31T18:01:03.902Z,14.30
2018-03-31T18:03:30.884Z,14.30
2018-03-31T18:05:57.844Z,14.20
2018-03-31T18:08:24.844Z,14.10
2018-03-31T18:10:53.169Z,14.00
2018-03-31T18:13:20.657Z,14.00
2018-03-31T18:15:48.180Z,14.00
2018-03-31T18:18:15.595Z,13.90
2018-03-31T18:20:42.552Z,13.80
2018-03-31T18:23:10.320Z,13.70
2018-03-31T18:25:38.044Z,13.60
2018-03-31T18:28:05.188Z,13.60
2018-03-31T18:30:32.152Z,13.60
2018-03-31T18:33:00.613Z,13.40
2018-03-31T18:35:28.072Z,13.40
2018-03-31T18:37:55.064Z,13.40
2018-03-31T18:40:22.096Z,13.30
2018-03-31T18:42:50.210Z,13.20
2018-03-31T18:45:17.645Z,13.10
2018-03-31T18:47:44.646Z,13.10
2018-03-31T18:50:11.652Z,13.00
2018-03-31T18:52:38.641Z,13.00
2018-03-31T18:55:05.600Z,12.90
2018-03-31T18:57:33.365Z,12.80
2018-03-31T19:00:01.508Z,12.70
2018-03-31T19:02:28.497Z,12.70
2018-03-31T19:04:56.318Z,12.60
2018-03-31T19:07:23.773Z,12.60
2018-03-31T19:09:50.770Z,12.60
2018-03-31T19:12:18.144Z,12.60
2018-03-31T19:14:45.108Z,12.60
2018-03-31T19:17:14.455Z,12.60
2018-03-31T19:19:42.234Z,12.50
2018-03-31T19:22:09.194Z,12.50
2018-03-31T19:24:41.795Z,12.50
2018-03-31T19:27:08.840Z,12.40
2018-03-31T19:29:35.816Z,12.40
2018-03-31T19:32:02.786Z,12.40
2018-03-31T19:34:30.356Z,12.30
2018-03-31T19:36:57.782Z,12.30
2018-03-31T19:39:30.706Z,12.30
2018-03-31T19:41:57.635Z,12.30
2018-03-31T19:44:24.995Z,12.30
2018-03-31T19:46:52.054Z,12.30
2018-03-31T19:49:19.069Z,12.20
2018-03-31T19:51:46.787Z,12.30
2018-03-31T19:54:13.843Z,12.20
2018-03-31T19:56:40.800Z,12.30
2018-03-31T19:59:08.258Z,12.30
2018-03-31T20:01:35.242Z,12.20
2018-03-31T20:04:07.422Z,12.20
2018-03-31T20:06:34.412Z,12.20
2018-03-31T20:09:01.969Z,12.20
2018-03-31T20:11:29.454Z,12.10
2018-03-31T20:13:57.247Z,12.10
2018-03-31T20:16:24.201Z,12.10
2018-03-31T20:18:51.670Z,12.10
2018-03-31T20:21:19.154Z,12.10
2018-03-31T20:23:46.114Z,12.10
2018-03-31T20:26:14.144Z,12.00
2018-03-31T20:28:41.167Z,11.90
2018-03-31T20:31:08.211Z,11.90
2018-03-31T20:33:35.175Z,11.90
2018-03-31T20:36:04.781Z,11.90
2018-03-31T20:38:31.743Z,11.80
2018-03-31T20:40:58.744Z,11.80
2018-03-31T20:43:26.279Z,11.70
2018-03-31T20:45:54.049Z,11.70
2018-03-31T20:48:21.772Z,11.70
2018-03-31T20:50:48.939Z,11.70
2018-03-31T20:53:16.295Z,11.60
2018-03-31T20:55:43.329Z,11.60
2018-03-31T20:58:10.441Z,11.50
2018-03-31T21:00:37.859Z,11.40
2018-03-31T21:03:05.587Z,11.40
2018-03-31T21:05:32.774Z,11.30
2018-03-31T21:08:00.499Z,11.30
2018-03-31T21:10:27.952Z,11.30
2018-03-31T21:12:55.173Z,11.30
2018-03-31T21:15:22.880Z,11.30
2018-03-31T21:17:50.164Z,11.20
2018-03-31T21:20:17.895Z,11.20
2018-03-31T21:22:46.442Z,11.20
2018-03-31T21:25:13.405Z,11.20
2018-03-31T21:27:40.393Z,11.20
2018-03-31T21:30:08.124Z,11.20
2018-03-31T21:32:35.109Z,11.10
2018-03-31T21:35:03.340Z,11.10
2018-03-31T21:37:30.756Z,11.00
2018-03-31T21:39:58.477Z,11.00
2018-03-31T21:42:25.466Z,11.00
2018-03-31T21:44:52.916Z,11.00
2018-03-31T21:47:21.453Z,10.90
2018-03-31T21:49:48.482Z,10.90
2018-03-31T21:52:15.648Z,10.90
2018-03-31T21:54:43.662Z,10.80
2018-03-31T21:57:11.082Z,10.80
2018-03-31T21:59:38.605Z,10.70
2018-03-31T22:02:05.978Z,10.70
2018-03-31T22:04:32.949Z,10.60
2018-03-31T22:07:00.705Z,10.60
2018-03-31T22:09:27.680Z,10.60
2018-03-31T22:11:55.192Z,10.60
2018-03-31T22:14:27.946Z,10.60
2018-03-31T22:16:54.928Z,10.60
2018-03-31T22:19:22.505Z,10.60
2018-03-31T22:21:50.258Z,10.50
2018-03-31T22:24:17.367Z,10.40
2018-03-31T22:26:44.373Z,10.40
2018-03-31T22:29:12.136Z,10.40
2018-03-31T22:31:39.909Z,10.30
2018-03-31T22:34:07.746Z,10.40
2018-03-31T22:36:35.202Z,10.30
2018-03-31T22:39:02.645Z,10.30
2018-03-31T22:41:29.670Z,10.30
2018-03-31T22:43:57.059Z,10.30
2018-03-31T22:46:24.019Z,10.30
2018-03-31T22:48:51.783Z,10.30
2018-03-31T22:51:19.502Z,10.30
2018-03-31T22:53:46.531Z,10.30
2018-03-31T22:56:13.489Z,10.30
2018-03-31T22:58:40.965Z,10.30
2018-03-31T23:01:08.179Z,10.30
2018-03-31T23:03:35.164Z,10.20
2018-03-31T23:06:02.167Z,10.20
2018-03-31T23:08:29.212Z,10.20
2018-03-31T23:10:56.821Z,10.20
2018-03-31T23:13:23.806Z,10.20
2018-03-31T23:15:51.729Z,10.20
2018-03-31T23:18:18.903Z,10.20
2018-03-31T23:20:46.624Z,10.20
2018-03-31T23:23:13.599Z,10.20
2018-03-31T23:25:41.649Z,10.20
2018-03-31T23:28:08.614Z,10.20
2018-03-31T23:30:35.660Z,10.20
2018-03-31T23:33:03.101Z,10.20
2018-03-31T23:35:30.780Z,10.20
2018-03-31T23:37:58.319Z,10.20
2018-03-31T23:40:25.315Z,10.20
2018-03-31T23:42:53.604Z,10.20
2018-03-31T23:45:20.910Z,10.20
2018-03-31T23:47:47.874Z,10.10
2018-03-31T23:50:15.642Z,10.00
2018-03-31T23:52:43.772Z,10.00
2018-03-31T23:55:10.728Z,9.90
2018-03-31T23:57:37.747Z,9.90
